Time;durP1;ratioP1;P1;durP2;ratioP2;P2;SDS_P1;SDS_P2;PMS_P1;PMS_P2;Temp;Humidity;BMP_temperature;BMP_pressure;BME280_temperature;BME280_humidity;BME280_pressure;Samples;Min_cycle;Max_cycle;Signal;HPM_P1;HPM_P2
2023/03/22 00:00:18;;;;;;;17.55;9.25;;;;;;;10.17;94.32;100408.47;4999001;28;20054;-78
2023/03/22 00:02:45;;;;;;;12.60;9.32;;;;;;;10.19;94.75;100410.91;5011540;28;20058;-77
2023/03/22 00:05:11;;;;;;;16.13;9.77;;;;;;;10.14;94.82;100395.69;5008964;28;20073;-77
2023/03/22 00:07:39;;;;;;;13.65;9.90;;;;;;;10.19;94.99;100406.53;5007855;28;20078;-78
2023/03/22 00:10:07;;;;;;;14.43;9.82;;;;;;;10.20;94.72;100402.94;5012850;28;20058;-80
2023/03/22 00:12:33;;;;;;;15.52;10.15;;;;;;;10.17;94.99;100398.00;5001946;28;20081;-77
2023/03/22 00:15:01;;;;;;;17.30;10.98;;;;;;;10.05;95.06;100373.13;5011139;28;20081;-78
2023/03/22 00:17:29;;;;;;;15.05;11.43;;;;;;;10.19;95.34;100396.06;4998350;28;20054;-79
2023/03/22 00:19:57;;;;;;;17.30;10.77;;;;;;;10.20;95.18;100402.94;4999487;28;20081;-79
2023/03/22 00:22:24;;;;;;;17.13;10.52;;;;;;;10.18;95.34;100393.59;4998049;28;20572;-78
2023/03/22 00:24:50;;;;;;;15.68;10.77;;;;;;;10.13;95.45;100385.41;4998405;28;20484;-78
2023/03/22 00:27:17;;;;;;;20.13;11.82;;;;;;;10.10;95.72;100386.53;4998362;28;20074;-79
2023/03/22 00:29:44;;;;;;;14.85;10.95;;;;;;;10.11;95.86;100382.94;4998025;28;20547;-79
2023/03/22 00:32:11;;;;;;;15.40;11.23;;;;;;;10.07;96.01;100375.56;4996548;28;20050;-78
2023/03/22 00:34:38;;;;;;;18.33;12.48;;;;;;;10.08;95.94;100367.56;4997410;28;20133;-77
2023/03/22 00:37:06;;;;;;;18.75;10.93;;;;;;;10.07;96.31;100371.16;4996799;28;20133;-78
2023/03/22 00:39:33;;;;;;;17.40;11.32;;;;;;;10.13;96.38;100364.50;4988774;28;20050;-77
2023/03/22 00:42:00;;;;;;;14.95;11.60;;;;;;;10.10;96.46;100360.38;4996889;28;20078;-78
2023/03/22 00:44:26;;;;;;;18.35;11.40;;;;;;;10.02;96.55;100356.94;4996244;28;20491;-78
2023/03/22 00:46:53;;;;;;;14.38;11.65;;;;;;;10.02;96.73;100357.75;4994898;28;20050;-78
2023/03/22 00:49:21;;;;;;;16.20;11.70;;;;;;;9.95;96.91;100359.34;4996246;28;20097;-78
2023/03/22 00:51:48;;;;;;;15.35;11.65;;;;;;;9.81;97.15;100358.19;4993126;28;20054;-77
2023/03/22 00:54:16;;;;;;;14.75;11.48;;;;;;;9.76;97.83;100349.19;4993967;28;20089;-78
2023/03/22 00:56:44;;;;;;;16.45;11.73;;;;;;;9.73;97.92;100341.66;4993707;28;20473;-77
2023/03/22 00:59:11;;;;;;;18.88;13.65;;;;;;;9.70;98.09;100331.53;4993577;28;20058;-78
2023/03/22 01:01:37;;;;;;;17.77;12.88;;;;;;;9.62;98.24;100348.78;4994757;28;20057;-78
2023/03/22 01:04:04;;;;;;;17.70;11.88;;;;;;;9.63;98.74;100333.94;4994563;28;20450;-78
2023/03/22 01:06:33;;;;;;;17.17;12.68;;;;;;;9.52;98.96;100337.63;4995013;28;20129;-76
2023/03/22 01:08:59;;;;;;;14.63;12.05;;;;;;;9.47;99.16;100328.63;4994606;28;20074;-78
2023/03/22 01:11:26;;;;;;;17.40;12.30;;;;;;;9.40;99.45;100328.47;4994029;28;20134;-77
2023/03/22 01:13:54;;;;;;;16.88;12.52;;;;;;;9.38;99.68;100332.19;4994721;28;20118;-78
2023/03/22 01:16:21;;;;;;;18.55;12.68;;;;;;;9.34;100.00;100334.31;4994580;28;20457;-78
2023/03/22 01:18:48;;;;;;;18.90;12.27;;;;;;;9.34;100.00;100336.09;4994658;28;20105;-79
2023/03/22 01:21:14;;;;;;;19.30;13.27;;;;;;;9.30;100.00;100332.97;4993621;28;20093;-78
2023/03/22 01:23:42;;;;;;;16.77;12.93;;;;;;;9.28;100.00;100325.28;4994418;28;20050;-78
2023/03/22 01:32:22;;;;;;;16.95;11.93;;;;;;;9.30;100.00;100319.91;4945862;28;20093;-82
2023/03/22 01:34:50;;;;;;;16.08;11.82;;;;;;;9.05;100.00;100295.44;5015344;28;20050;-81
2023/03/22 01:37:20;;;;;;;14.43;11.60;;;;;;;9.06;100.00;100301.50;4997629;28;20050;-80
2023/03/22 01:39:49;;;;;;;16.02;11.93;;;;;;;9.11;100.00;100309.69;4998292;28;20070;-81
2023/03/22 01:42:17;;;;;;;18.38;12.18;;;;;;;8.89;100.00;100285.75;4998466;28;20054;-83
2023/03/22 01:45:04;;;;;;;18.33;12.38;;;;;;;8.93;100.00;100287.09;4993656;28;20042;-82
2023/03/22 01:47:41;;;;;;;17.42;12.40;;;;;;;9.09;100.00;100296.78;4997291;28;20054;-82
2023/03/22 01:50:17;;;;;;;18.73;12.68;;;;;;;9.19;100.00;100301.91;4996771;28;20049;-83
2023/03/22 01:52:44;;;;;;;18.65;13.07;;;;;;;9.15;100.00;100288.34;4991489;28;20126;-83
2023/03/22 01:58:21;;;;;;;17.10;13.18;;;;;;;9.14;100.00;100278.06;4995587;28;20138;-83
2023/03/22 02:01:06;;;;;;;17.42;12.57;;;;;;;9.24;100.00;100291.81;4991543;28;20034;-82
2023/03/22 02:03:52;;;;;;;19.05;12.63;;;;;;;9.34;100.00;100302.97;4992251;28;20051;-81
2023/03/22 02:06:23;;;;;;;19.25;13.15;;;;;;;9.22;100.00;100288.53;4994183;28;20046;-81
2023/03/22 02:08:57;;;;;;;15.90;12.18;;;;;;;9.12;100.00;100283.44;5003078;28;20050;-83
2023/03/22 02:11:30;;;;;;;17.00;11.60;;;;;;;9.07;100.00;100285.69;5006336;28;20436;-83
2023/03/22 02:14:32;;;;;;;19.17;13.55;;;;;;;9.03;100.00;100276.53;5006927;28;20054;-82
2023/03/22 02:17:17;;;;;;;18.08;13.35;;;;;;;9.03;100.00;100273.91;4996390;28;20074;-83
2023/03/22 02:20:21;;;;;;;17.30;13.48;;;;;;;9.11;100.00;100275.75;4997281;28;20108;-83
2023/03/22 02:23:32;;;;;;;19.85;13.30;;;;;;;9.12;100.00;100274.78;5002371;28;20054;-82
2023/03/22 02:26:19;;;;;;;20.48;13.25;;;;;;;9.08;100.00;100278.66;4973482;28;20061;-81
2023/03/22 02:28:55;;;;;;;19.30;12.95;;;;;;;9.02;100.00;100264.44;4998972;28;20057;-82
2023/03/22 02:31:44;;;;;;;19.50;13.70;;;;;;;8.99;100.00;100264.75;4995332;28;20047;-82
2023/03/22 02:35:07;;;;;;;20.60;14.40;;;;;;;8.86;100.00;100248.72;4993355;28;20070;-83
2023/03/22 02:38:12;;;;;;;18.88;14.07;;;;;;;8.97;100.00;100264.94;4882072;29;20088;-80
2023/03/22 02:40:50;;;;;;;18.80;12.95;;;;;;;9.02;100.00;100271.44;4992426;28;20133;-82
2023/03/22 02:43:29;;;;;;;20.73;13.70;;;;;;;8.98;100.00;100256.09;4995028;28;20054;-81
2023/03/22 02:46:04;;;;;;;20.85;12.68;;;;;;;8.98;100.00;100252.66;5001342;28;20046;-82
2023/03/22 02:48:35;;;;;;;17.92;12.38;;;;;;;8.98;100.00;100248.28;4996663;28;20080;-82
2023/03/22 02:51:07;;;;;;;16.98;12.73;;;;;;;8.98;100.00;100245.66;5002209;28;20109;-82
2023/03/22 02:53:39;;;;;;;17.52;12.15;;;;;;;8.99;100.00;100242.09;4997909;28;20057;-82
2023/03/22 02:56:11;;;;;;;19.15;12.68;;;;;;;8.95;100.00;100238.19;4999017;28;20104;-81
2023/03/22 02:58:44;;;;;;;17.67;12.02;;;;;;;8.92;100.00;100238.47;5002921;28;20534;-80
2023/03/22 03:01:16;;;;;;;;;;;;;;;8.93;100.00;100237.50;5001215;28;20066;-81
2023/03/22 03:03:46;;;;;;;17.92;11.88;;;;;;;8.93;100.00;100237.50;5001362;28;19930;-82
2023/03/22 03:06:18;;;;;;;16.73;11.43;;;;;;;8.86;100.00;100233.06;5001670;28;20043;-81
2023/03/22 03:08:49;;;;;;;19.50;11.68;;;;;;;8.88;100.00;100234.53;4998681;28;20089;-79
2023/03/22 03:11:17;;;;;;;18.48;12.27;;;;;;;8.86;100.00;100236.47;5000161;28;20082;-81
2023/03/22 03:13:47;;;;;;;15.55;11.07;;;;;;;8.79;100.00;100226.81;4992904;28;20069;-83
2023/03/22 03:16:16;;;;;;;16.75;11.57;;;;;;;8.70;100.00;100227.72;5000012;28;20149;-80
2023/03/22 03:18:49;;;;;;;20.10;12.00;;;;;;;8.73;100.00;100228.25;5006863;28;20057;-81
2023/03/22 03:21:29;;;;;;;19.33;12.57;;;;;;;8.70;100.00;100231.16;5002766;28;20073;-81
2023/03/22 03:24:07;;;;;;;16.88;11.93;;;;;;;8.64;100.00;100234.38;5001263;28;20058;-80
2023/03/22 03:26:41;;;;;;;15.85;11.52;;;;;;;8.55;100.00;100235.28;5002815;28;20046;-81
2023/03/22 03:29:15;;;;;;;16.70;11.35;;;;;;;8.54;100.00;100231.03;4993506;28;20058;-81
2023/03/22 03:31:49;;;;;;;18.15;11.93;;;;;;;8.61;100.00;100225.06;4994714;28;20141;-82
2023/03/22 03:34:22;;;;;;;21.50;11.25;;;;;;;8.65;100.00;100225.59;5001534;28;20311;-81
2023/03/22 03:36:55;;;;;;;16.02;11.95;;;;;;;8.62;100.00;100226.72;5001842;28;20485;-82
2023/03/22 03:39:26;;;;;;;19.27;11.32;;;;;;;8.62;100.00;100218.88;4998762;28;20228;-81
2023/03/22 03:41:55;;;;;;;16.88;11.18;;;;;;;8.60;100.00;100228.66;5001323;28;20054;-81
2023/03/22 03:44:23;;;;;;;17.25;11.75;;;;;;;8.52;100.00;100220.75;5001018;28;20073;-81
2023/03/22 03:46:52;;;;;;;17.30;11.20;;;;;;;8.46;100.00;100225.78;4999120;28;20137;-81
2023/03/22 03:49:21;;;;;;;16.88;11.13;;;;;;;8.45;100.00;100224.16;5002638;28;20050;-79
2023/03/22 03:51:50;;;;;;;16.27;10.50;;;;;;;8.38;100.00;100233.56;5004157;28;20129;-80
2023/03/22 03:54:17;;;;;;;16.98;10.65;;;;;;;8.40;100.00;100240.25;4992046;28;20077;-80
2023/03/22 03:56:43;;;;;;;15.93;11.10;;;;;;;8.38;100.00;100238.78;4997600;28;20134;-80
2023/03/22 03:59:11;;;;;;;16.85;11.80;;;;;;;8.30;100.00;100237.69;5002477;28;20058;-80
2023/03/22 04:01:38;;;;;;;17.73;10.82;;;;;;;8.38;100.00;100233.56;5004004;28;20055;-80
2023/03/22 04:04:05;;;;;;;22.50;11.05;;;;;;;8.32;100.00;100234.94;5006588;28;20073;-80
2023/03/22 04:06:33;;;;;;;18.42;11.98;;;;;;;8.31;100.00;100241.94;5005884;28;20152;-79
2023/03/22 04:09:00;;;;;;;18.27;11.70;;;;;;;8.31;100.00;100244.56;5003170;28;20057;-79
2023/03/22 04:11:27;;;;;;;20.73;12.07;;;;;;;8.25;100.00;100250.38;5006146;28;20050;-79
2023/03/22 04:13:53;;;;;;;19.13;11.68;;;;;;;8.27;100.00;100256.25;5001156;28;20129;-81
2023/03/22 04:16:23;;;;;;;17.92;11.98;;;;;;;8.19;100.00;100247.53;5012764;28;20061;-80
2023/03/22 04:18:50;;;;;;;17.23;11.55;;;;;;;8.12;100.00;100252.53;5007161;28;20046;-81
2023/03/22 04:21:17;;;;;;;17.95;11.45;;;;;;;8.07;100.00;100236.50;5008644;28;20051;-80
2023/03/22 04:23:45;;;;;;;19.23;11.98;;;;;;;8.10;100.00;100244.03;5002928;28;20077;-81
2023/03/22 04:26:12;;;;;;;21.75;12.98;;;;;;;8.11;100.00;100248.28;5002545;28;20043;-82
2023/03/22 04:28:38;;;;;;;18.33;12.48;;;;;;;8.14;100.00;100247.97;5010681;28;20050;-82
2023/03/22 04:31:05;;;;;;;19.90;12.93;;;;;;;8.11;100.00;100245.66;5009189;28;20081;-81
2023/03/22 04:33:38;;;;;;;17.50;11.63;;;;;;;8.13;100.00;100245.53;4998765;28;20566;-81
2023/03/22 04:36:05;;;;;;;19.65;12.70;;;;;;;8.16;100.00;100240.84;4993510;28;20047;-81
2023/03/22 04:38:32;;;;;;;17.10;11.50;;;;;;;8.11;100.00;100227.44;4992731;28;20492;-81
2023/03/22 04:40:59;;;;;;;21.52;12.65;;;;;;;8.17;100.00;100232.03;4996901;28;20113;-81
2023/03/22 04:43:26;;;;;;;19.40;13.02;;;;;;;8.15;100.00;100223.56;4997793;28;20085;-79
2023/03/22 04:45:57;;;;;;;19.52;12.15;;;;;;;8.18;100.00;100225.03;4991477;28;20126;-80
2023/03/22 04:48:26;;;;;;;20.35;12.27;;;;;;;8.10;100.00;100212.75;4992644;28;20058;-78
2023/03/22 04:50:54;;;;;;;20.75;13.02;;;;;;;8.02;100.00;100212.72;4997498;28;20074;-81
2023/03/22 04:53:26;;;;;;;19.88;12.30;;;;;;;8.00;100.00;100214.66;4999761;28;20085;-81
2023/03/22 04:55:55;;;;;;;20.17;13.15;;;;;;;8.04;100.00;100215.16;4996941;28;20046;-81
2023/03/22 04:58:22;;;;;;;17.45;12.43;;;;;;;8.05;100.00;100222.81;4993902;28;20425;-81
2023/03/22 05:00:52;;;;;;;17.63;12.18;;;;;;;8.03;100.00;100218.75;4997029;28;20042;-81
2023/03/22 05:03:22;;;;;;;18.67;12.48;;;;;;;8.06;100.00;100224.44;4993546;28;20051;-80
2023/03/22 05:06:10;;;;;;;25.08;12.30;;;;;;;8.06;100.00;100229.66;4994010;28;20061;-81
2023/03/22 05:08:37;;;;;;;16.60;11.95;;;;;;;8.05;100.00;100232.41;4986062;28;20058;-83
2023/03/22 05:11:06;;;;;;;21.73;11.73;;;;;;;8.01;100.00;100226.72;4996735;28;20054;-82
2023/03/22 05:13:33;;;;;;;19.45;12.77;;;;;;;7.94;100.00;100225.66;4996611;28;20050;-82
2023/03/22 05:16:00;;;;;;;19.83;12.23;;;;;;;7.84;100.00;100224.91;4994006;28;20505;-82
2023/03/22 05:18:26;;;;;;;20.58;12.10;;;;;;;7.79;100.00;100221.94;4998254;28;20096;-82
2023/03/22 05:20:55;;;;;;;23.80;13.10;;;;;;;7.79;100.00;100224.53;4998619;28;20085;-81
2023/03/22 05:23:27;;;;;;;18.80;12.50;;;;;;;7.84;100.00;100224.91;4988117;28;20102;-80
2023/03/22 05:25:57;;;;;;;19.30;12.18;;;;;;;7.93;100.00;100226.63;4994781;28;20066;-81
2023/03/22 05:28:26;;;;;;;21.60;12.52;;;;;;;7.99;100.00;100224.25;4999136;28;20176;-80
2023/03/22 05:30:52;;;;;;;20.15;11.43;;;;;;;8.07;100.00;100225.28;4991392;28;20046;-81
2023/03/22 05:33:20;;;;;;;20.80;12.35;;;;;;;8.12;100.00;100228.25;4999857;28;20084;-81
2023/03/22 05:35:48;;;;;;;17.73;11.65;;;;;;;8.19;100.00;100224.91;4974325;28;20482;-81
2023/03/22 05:38:21;;;;;;;16.67;12.05;;;;;;;8.19;100.00;100232.72;4996984;28;20055;-80
2023/03/22 05:40:50;;;;;;;19.67;11.30;;;;;;;8.24;100.00;100227.06;4990084;28;20406;-79
2023/03/22 05:43:17;;;;;;;19.10;12.02;;;;;;;8.31;100.00;100236.72;4992664;28;20054;-78
2023/03/22 05:45:46;;;;;;;21.08;11.93;;;;;;;8.29;100.00;100228.25;4996674;28;20054;-80
2023/03/22 05:48:13;;;;;;;17.13;12.40;;;;;;;8.24;100.00;100232.25;4997262;28;20054;-80
2023/03/22 05:50:40;;;;;;;18.95;12.02;;;;;;;8.35;100.00;100236.47;4994105;28;20054;-80
2023/03/22 05:53:07;;;;;;;21.80;14.02;;;;;;;8.43;100.00;100239.13;4990982;28;20074;-80
2023/03/22 05:55:33;;;;;;;18.80;12.65;;;;;;;8.48;100.00;100229.06;4992506;28;20354;-81
2023/03/22 05:58:02;;;;;;;22.92;12.70;;;;;;;8.61;100.00;100229.47;4996542;28;20046;-80
2023/03/22 06:00:30;;;;;;;16.92;11.77;;;;;;;8.72;100.00;100231.81;5000135;28;20050;-81
2023/03/22 06:03:02;;;;;;;17.88;12.05;;;;;;;8.74;100.00;100224.66;4988812;28;20054;-79
2023/03/22 06:05:30;;;;;;;18.20;12.45;;;;;;;8.83;100.00;100226.34;4995811;28;21107;-82
2023/03/22 06:07:56;;;;;;;16.55;11.35;;;;;;;8.95;100.00;100217.28;4990744;28;20064;-78
2023/03/22 06:10:25;;;;;;;19.55;11.93;;;;;;;9.03;100.00;100216.50;4997486;28;20113;-80
2023/03/22 06:12:52;;;;;;;17.73;11.80;;;;;;;9.04;100.00;100217.31;4991069;28;20054;-81
2023/03/22 06:15:20;;;;;;;16.67;11.57;;;;;;;9.11;100.00;100207.88;4998304;28;20133;-82
2023/03/22 06:17:47;;;;;;;16.00;10.95;;;;;;;9.15;100.00;100212.63;4998553;28;20133;-83
2023/03/22 06:20:20;;;;;;;17.65;12.57;;;;;;;9.21;100.00;100211.19;4996617;28;20105;-83
2023/03/22 06:22:46;;;;;;;20.77;11.43;;;;;;;9.26;100.00;100209.75;4997533;28;20086;-82
2023/03/22 06:28:17;;;;;;;18.75;11.55;;;;;;;9.28;100.00;100199.16;4994346;28;20056;-81
2023/03/22 06:33:48;;;;;;;16.88;12.40;;;;;;;9.51;100.00;100231.53;4990157;28;20108;-83
2023/03/22 06:36:23;;;;;;;19.10;12.35;;;;;;;9.54;100.00;100228.59;5004897;28;20081;-82
2023/03/22 06:39:03;;;;;;;20.73;13.25;;;;;;;9.64;100.00;100229.28;5009656;28;20401;-82
2023/03/22 06:41:44;;;;;;;19.55;12.95;;;;;;;9.57;100.00;100212.59;5003908;28;20054;-83
2023/03/22 06:44:32;;;;;;;23.35;13.60;;;;;;;9.76;100.00;100210.69;5001086;28;20081;-81
2023/03/22 06:47:03;;;;;;;20.45;12.45;;;;;;;9.76;100.00;100205.47;4989799;28;20061;-82
2023/03/22 06:49:37;;;;;;;17.30;12.05;;;;;;;10.10;100.00;100229.69;4999888;28;20101;-81
2023/03/22 06:52:04;;;;;;;18.05;11.45;;;;;;;10.02;100.00;100211.38;4999668;28;20059;-82
2023/03/22 06:54:30;;;;;;;22.90;11.55;;;;;;;10.09;100.00;100212.34;5001584;28;20061;-81
2023/03/22 06:56:57;;;;;;;20.75;9.93;;;;;;;10.22;99.84;100209.28;5002991;28;20108;-83
2023/03/22 06:59:33;;;;;;;15.27;10.20;;;;;;;10.35;99.35;100212.22;5005728;28;20070;-84
2023/03/22 07:02:31;;;;;;;15.02;9.02;;;;;;;10.28;98.74;100193.75;5001649;28;20054;-82
2023/03/22 07:04:58;;;;;;;14.13;8.48;;;;;;;10.43;97.99;100214.81;4998173;28;20424;-83
2023/03/22 07:07:25;;;;;;;14.95;7.88;;;;;;;10.37;97.41;100194.59;5009127;28;20070;-89
2023/03/22 07:09:52;;;;;;;17.35;8.05;;;;;;;10.59;97.16;100208.75;5005904;28;20050;-82
2023/03/22 07:12:18;;;;;;;13.07;8.43;;;;;;;10.73;96.27;100200.22;5000806;28;20157;-82
2023/03/22 07:14:45;;;;;;;12.90;8.10;;;;;;;10.98;95.70;100208.81;4999030;28;20076;-82
2023/03/22 07:17:13;;;;;;;12.18;7.65;;;;;;;11.10;94.44;100180.47;4988369;28;20046;-82
2023/03/22 07:19:41;;;;;;;13.10;7.60;;;;;;;11.45;93.79;100202.72;4993762;28;20050;-81
2023/03/22 07:22:08;;;;;;;14.30;6.93;;;;;;;12.18;91.65;100205.69;4998040;28;20482;-80
2023/03/22 07:24:35;;;;;;;12.43;7.35;;;;;;;12.69;88.80;100205.88;5005554;28;20117;-81
2023/03/22 07:27:24;;;;;;;13.25;8.07;;;;;;;12.11;88.75;100196.91;5003694;23;20063;-80
2023/03/22 07:29:52;;;;;;;14.25;7.78;;;;;;;12.03;89.14;100186.47;4961806;28;20051;-81
2023/03/22 07:32:19;;;;;;;12.95;7.43;;;;;;;12.03;89.12;100177.78;4974014;28;20055;-83
2023/03/22 07:34:47;;;;;;;14.40;7.15;;;;;;;13.06;87.33;100185.78;4970080;28;20047;-82
2023/03/22 07:37:14;;;;;;;12.88;6.80;;;;;;;13.97;84.58;100179.91;4979144;28;20074;-80
2023/03/22 07:39:41;;;;;;;17.13;7.03;;;;;;;14.22;82.48;100175.84;4994510;28;20074;-81
2023/03/22 07:42:08;;;;;;;14.65;7.45;;;;;;;13.70;81.76;100173.59;4993670;28;20509;-80
2023/03/22 07:44:57;;;;;;;13.10;7.45;;;;;;;13.27;82.92;100172.72;4982591;28;20054;-81
2023/03/22 07:47:27;;;;;;;14.07;7.75;;;;;;;12.76;84.47;100185.75;4978527;28;20059;-81
2023/03/22 07:50:54;;;;;;;9.98;6.07;;;;;;;12.36;85.51;100157.31;4982834;28;20502;-79
2023/03/22 07:53:58;;;;;;;12.00;4.80;;;;;;;12.23;84.24;100179.75;4943129;28;20104;-82
2023/03/22 07:59:53;;;;;;;7.30;3.70;;;;;;;12.36;82.68;100165.19;4982694;28;20054;-80
2023/03/22 08:02:46;;;;;;;6.93;3.80;;;;;;;13.10;81.37;100171.28;4981771;28;20047;-81
2023/03/22 08:05:16;;;;;;;13.88;4.15;;;;;;;13.94;78.14;100162.69;4901153;29;20475;-79
2023/03/22 08:07:45;;;;;;;6.65;3.58;;;;;;;14.84;75.26;100161.91;4901967;29;20048;-80
2023/03/22 08:10:12;;;;;;;14.27;3.72;;;;;;;15.18;72.83;100136.50;4963478;28;20051;-79
2023/03/22 08:12:45;;;;;;;6.75;3.30;;;;;;;14.85;70.74;100131.13;4980593;28;20062;-79
2023/03/22 08:15:20;;;;;;;6.55;3.40;;;;;;;14.93;70.96;100141.50;4971845;28;20047;-79
2023/03/22 08:17:48;;;;;;;6.65;3.53;;;;;;;15.22;70.13;100143.00;4981365;28;20055;-81
2023/03/22 08:20:17;;;;;;;10.57;3.65;;;;;;;15.44;68.43;100123.41;4979923;28;20106;-81
2023/03/22 08:22:48;;;;;;;8.18;3.10;;;;;;;15.63;68.18;100135.03;4980884;28;20050;-81
2023/03/22 08:25:18;;;;;;;7.40;2.97;;;;;;;15.68;66.76;100121.22;4977552;28;20047;-78
2023/03/22 08:27:50;;;;;;;7.95;2.78;;;;;;;15.43;67.30;100124.44;4989230;28;20057;-80
2023/03/22 08:30:18;;;;;;;7.35;3.60;;;;;;;15.29;67.84;100138.56;5000303;28;20564;-78
2023/03/22 08:32:44;;;;;;;6.68;3.95;;;;;;;15.32;67.86;100146.09;4999163;28;20050;-82
2023/03/22 08:35:12;;;;;;;9.07;4.05;;;;;;;15.77;66.65;100141.94;4999951;28;20082;-79
2023/03/22 08:37:40;;;;;;;11.00;4.20;;;;;;;15.77;65.06;100143.78;5000291;28;20121;-80
2023/03/22 08:40:10;;;;;;;4.95;2.75;;;;;;;16.77;63.93;100151.41;5009649;28;20082;-78
2023/03/22 08:42:36;;;;;;;12.73;3.13;;;;;;;16.68;62.85;100139.44;5000128;28;20082;-80
2023/03/22 08:45:04;;;;;;;6.80;3.65;;;;;;;17.19;61.66;100133.34;4998655;28;20453;-79
2023/03/22 08:47:30;;;;;;;15.60;4.00;;;;;;;17.07;61.52;100132.38;4997511;28;20054;-80
2023/03/22 08:49:57;;;;;;;6.72;2.88;;;;;;;17.21;60.99;100139.25;4997964;28;20208;-80
2023/03/22 08:52:24;;;;;;;7.65;4.07;;;;;;;16.94;61.82;100129.81;4997662;28;20112;-77
2023/03/22 08:54:52;;;;;;;9.43;3.60;;;;;;;16.46;62.99;100141.53;4999303;28;20236;-75
2023/03/22 08:57:22;;;;;;;7.68;5.10;;;;;;;16.29;63.72;100145.59;4998176;28;20050;-79
2023/03/22 09:00:04;;;;;;;4.07;3.20;;;;;;;16.28;63.39;100138.69;4994875;28;20059;-80
2023/03/22 09:02:30;;;;;;;5.47;2.85;;;;;;;15.32;64.94;100140.00;4992480;28;20057;-78
2023/03/22 09:04:57;;;;;;;5.25;2.92;;;;;;;14.89;66.95;100143.72;4999305;28;20139;-82
2023/03/22 09:07:24;;;;;;;8.55;3.75;;;;;;;14.46;67.43;100155.41;4998279;28;20050;-78
2023/03/22 09:09:52;;;;;;;6.28;2.72;;;;;;;14.62;68.33;100152.50;4988889;28;20066;-79
2023/03/22 09:12:20;;;;;;;4.05;2.58;;;;;;;14.52;67.88;100146.75;4997165;28;20053;-80
2023/03/22 09:14:48;;;;;;;7.32;3.58;;;;;;;14.42;68.37;100162.88;4993756;28;20133;-81
2023/03/22 09:17:17;;;;;;;6.03;3.35;;;;;;;14.61;68.47;100148.22;4992767;28;20042;-79
2023/03/22 09:19:44;;;;;;;8.65;3.90;;;;;;;14.94;68.16;100145.75;4991329;28;20053;-79
2023/03/22 09:22:11;;;;;;;10.13;2.75;;;;;;;14.92;67.51;100138.03;4999577;28;20559;-80
2023/03/22 09:24:38;;;;;;;10.57;4.57;;;;;;;15.50;66.63;100140.25;4998629;28;20126;-79
2023/03/22 09:27:06;;;;;;;11.50;5.47;;;;;;;15.99;65.67;100139.13;4995728;28;20058;-81
2023/03/22 09:29:37;;;;;;;14.77;3.80;;;;;;;16.38;64.87;100131.16;4981312;28;20054;-78
2023/03/22 09:32:05;;;;;;;10.02;4.93;;;;;;;16.04;64.96;100136.69;4980916;28;20061;-81
2023/03/22 09:34:32;;;;;;;7.88;3.13;;;;;;;15.83;65.60;100140.31;4988764;28;20248;-79
2023/03/22 09:37:01;;;;;;;9.10;3.50;;;;;;;15.43;65.61;100134.16;4983120;28;20062;-81
2023/03/22 09:39:37;;;;;;;8.65;3.58;;;;;;;15.37;65.61;100135.75;4989330;28;20137;-81
2023/03/22 09:42:13;;;;;;;4.78;2.30;;;;;;;15.36;65.74;100134.13;4982313;28;20051;-80
2023/03/22 09:47:38;;;;;;;6.45;2.30;;;;;;;14.66;68.92;100114.22;4967012;28;20082;-80
2023/03/22 09:50:13;;;;;;;6.95;2.75;;;;;;;14.85;68.10;100141.66;4984364;28;20055;-80
2023/03/22 09:52:40;;;;;;;7.55;2.25;;;;;;;14.86;68.68;100154.63;4983757;28;20493;-79
2023/03/22 09:55:16;;;;;;;9.38;2.67;;;;;;;14.51;69.11;100150.38;4981509;28;20094;-80
2023/03/22 09:57:47;;;;;;;6.90;2.42;;;;;;;14.39;69.40;100146.63;4977757;28;20053;-77
2023/03/22 10:00:22;;;;;;;3.50;2.08;;;;;;;14.07;68.75;100154.09;4980958;28;20085;-80
2023/03/22 10:02:58;;;;;;;3.53;1.98;;;;;;;13.92;70.61;100148.09;4981807;28;20125;-80
2023/03/22 10:05:31;;;;;;;6.03;2.15;;;;;;;14.06;70.55;100141.94;4981481;28;20050;-80
2023/03/22 10:08:21;;;;;;;6.07;2.30;;;;;;;14.15;70.34;100145.25;4981830;28;20053;-80
2023/03/22 10:10:49;;;;;;;5.45;2.50;;;;;;;14.11;70.14;100138.75;4974794;28;20513;-79
2023/03/22 10:13:21;;;;;;;6.75;2.88;;;;;;;14.15;70.00;100135.56;4981037;28;20050;-78
2023/03/22 10:15:52;;;;;;;5.85;2.45;;;;;;;14.07;70.06;100117.28;4982567;28;20043;-79
2023/03/22 10:18:22;;;;;;;6.53;2.30;;;;;;;14.35;69.69;100129.59;4980557;28;20083;-80
2023/03/22 10:20:57;;;;;;;10.80;3.03;;;;;;;14.43;69.87;100140.00;4979878;28;20099;-79
2023/03/22 10:23:31;;;;;;;9.60;3.00;;;;;;;14.64;69.20;100110.97;4980426;28;20085;-80
2023/03/22 10:26:00;;;;;;;12.35;2.97;;;;;;;14.70;68.56;100112.81;4974006;28;20074;-78
2023/03/22 10:28:31;;;;;;;8.52;2.72;;;;;;;14.87;68.82;100106.22;4992287;28;20074;-79
2023/03/22 10:30:59;;;;;;;4.78;2.50;;;;;;;15.18;67.76;100110.16;5000719;28;20046;-79
2023/03/22 10:33:37;;;;;;;2.97;1.85;;;;;;;15.31;67.02;100106.75;5002241;28;20101;-79
2023/03/22 10:36:07;;;;;;;6.57;2.60;;;;;;;15.47;66.90;100109.03;4998871;28;20050;-79
2023/03/22 10:38:40;;;;;;;10.43;3.70;;;;;;;15.31;67.41;100107.56;5000816;28;20078;-79
2023/03/22 10:41:08;;;;;;;5.60;2.53;;;;;;;15.18;67.84;100115.44;4998638;28;20050;-80
2023/03/22 10:43:37;;;;;;;7.68;3.10;;;;;;;15.18;68.05;100120.69;4997566;28;20484;-78
2023/03/22 10:46:10;;;;;;;9.18;3.40;;;;;;;14.80;68.40;100123.00;4995303;28;20070;-81
2023/03/22 10:48:42;;;;;;;6.20;2.50;;;;;;;14.70;68.96;100118.06;4997323;28;20119;-79
2023/03/22 10:51:18;;;;;;;5.13;2.30;;;;;;;14.80;68.98;100123.81;4997601;28;20054;-80
2023/03/22 10:53:48;;;;;;;7.28;2.80;;;;;;;14.88;68.72;100126.28;4992409;28;20046;-79
2023/03/22 10:56:18;;;;;;;5.47;2.92;;;;;;;14.92;69.03;100126.69;4991201;28;20085;-80
2023/03/22 10:58:46;;;;;;;5.70;2.88;;;;;;;14.79;68.54;100111.63;4991418;28;20042;-78
2023/03/22 11:01:16;;;;;;;6.43;2.80;;;;;;;14.62;68.90;100126.16;5002380;28;20105;-79
2023/03/22 11:03:45;;;;;;;5.63;2.75;;;;;;;14.64;69.47;100121.50;4995447;28;20046;-80
2023/03/22 11:06:13;;;;;;;11.23;2.80;;;;;;;14.72;70.21;100131.88;4991727;28;20295;-80
2023/03/22 11:08:45;;;;;;;9.05;2.75;;;;;;;14.59;69.12;100129.19;5000048;28;20070;-79
2023/03/22 11:11:19;;;;;;;6.18;2.85;;;;;;;14.68;67.70;100114.81;5000637;28;20362;-79
2023/03/22 11:13:52;;;;;;;4.15;2.28;;;;;;;14.53;68.25;100116.78;4999924;28;20093;-79
2023/03/22 11:16:21;;;;;;;11.60;2.55;;;;;;;14.53;68.31;100119.41;4999115;28;20069;-79
2023/03/22 11:18:48;;;;;;;22.05;3.17;;;;;;;14.54;67.13;100119.22;4998709;28;20088;-80
2023/03/22 11:21:16;;;;;;;12.18;2.78;;;;;;;14.69;66.71;100110.38;4993421;28;20090;-81
2023/03/22 11:23:51;;;;;;;9.63;2.97;;;;;;;14.77;67.22;100118.94;4997411;28;20069;-80
2023/03/22 11:26:26;;;;;;;6.40;2.60;;;;;;;14.77;66.67;100107.56;5000988;28;20058;-79
2023/03/22 11:29:02;;;;;;;9.13;2.60;;;;;;;14.90;66.07;100112.91;4986814;28;20216;-80
2023/03/22 11:31:53;;;;;;;8.57;2.90;;;;;;;14.78;66.49;100115.28;4984048;28;20106;-80
2023/03/22 11:34:22;;;;;;;5.88;2.40;;;;;;;14.73;66.32;100120.31;4998336;28;20050;-79
2023/03/22 11:36:55;;;;;;;5.05;2.03;;;;;;;14.93;66.36;100120.41;4999349;28;20047;-80
2023/03/22 11:39:23;;;;;;;6.30;2.47;;;;;;;14.86;66.83;100117.75;4997367;28;20056;-78
2023/03/22 11:41:50;;;;;;;6.35;2.55;;;;;;;14.49;67.14;100110.28;5000581;28;20077;-80
2023/03/22 11:44:21;;;;;;;4.03;2.70;;;;;;;14.29;67.58;100095.13;4998090;28;20129;-80
2023/03/22 11:46:54;;;;;;;6.95;2.90;;;;;;;14.31;67.81;100108.09;4997159;28;20094;-80
2023/03/22 11:49:25;;;;;;;8.23;2.70;;;;;;;14.25;68.28;100096.53;4997004;28;20058;-80
2023/03/22 11:51:53;;;;;;;9.73;2.83;;;;;;;14.50;68.62;100106.66;4999708;28;20081;-80
2023/03/22 11:54:28;;;;;;;7.00;2.72;;;;;;;14.50;68.49;100096.13;4997701;28;20077;-79